Time;durP1;ratioP1;P1;durP2;ratioP2;P2;SDS_P1;SDS_P2;PMS_P1;PMS_P2;Temp;Humidity;BMP_temperature;BMP_pressure;BME280_temperature;BME280_humidity;BME280_pressure;Samples;Min_cycle;Max_cycle;Signal;HPM_P1;HPM_P2
2022/09/04 00:02:13;;;;;;;5.25;3.88;;;;;;;23.81;45.88;101288.72;4985299;28;20030;-62
2022/09/04 00:05:07;;;;;;;5.73;3.77;;;;;;;23.77;45.87;101282.06;4985010;28;20034;-62
2022/09/04 00:08:06;;;;;;;6.10;4.30;;;;;;;23.80;46.21;101291.53;4985149;28;20049;-62
2022/09/04 00:10:59;;;;;;;5.60;3.85;;;;;;;23.76;46.01;101290.19;4978675;28;20039;-61
2022/09/04 00:13:36;;;;;;;5.10;3.63;;;;;;;23.74;46.22;101300.97;4965685;28;20113;-63
2022/09/04 00:16:29;;;;;;;5.38;3.85;;;;;;;23.76;46.10;101311.47;4965630;28;20113;-61
2022/09/04 00:19:03;;;;;;;5.68;4.07;;;;;;;23.75;46.17;101310.66;4971733;28;20382;-62
2022/09/04 00:21:55;;;;;;;5.75;3.90;;;;;;;23.74;46.51;101308.97;4977413;28;20122;-62
2022/09/04 00:24:36;;;;;;;5.82;4.28;;;;;;;23.71;46.72;101294.13;4965665;28;20141;-63
2022/09/04 00:27:25;;;;;;;5.68;3.80;;;;;;;23.73;46.71;101308.13;4965654;28;20031;-61
2022/09/04 00:29:53;;;;;;;5.32;3.72;;;;;;;23.72;46.48;101306.44;4973726;28;20046;-62
2022/09/04 00:32:40;;;;;;;5.13;3.85;;;;;;;23.72;46.71;101311.78;4980985;28;20112;-61
2022/09/04 00:35:30;;;;;;;5.40;3.53;;;;;;;23.71;46.59;101311.94;4976130;28;20031;-62
2022/09/04 00:38:01;;;;;;;4.93;3.83;;;;;;;23.70;46.30;101302.25;4983832;28;20050;-62
2022/09/04 00:40:41;;;;;;;5.55;3.72;;;;;;;23.69;46.76;101311.25;4968176;28;20073;-62
2022/09/04 00:43:31;;;;;;;5.78;3.90;;;;;;;23.69;46.55;101308.59;4978374;28;20026;-61
2022/09/04 00:46:20;;;;;;;5.63;3.75;;;;;;;23.67;46.45;101310.53;4966170;28;20046;-62
2022/09/04 00:49:10;;;;;;;4.82;3.55;;;;;;;23.68;46.79;101309.56;4975559;28;20475;-62
2022/09/04 00:51:42;;;;;;;5.68;3.60;;;;;;;23.67;46.50;101314.06;4981683;28;20104;-62
2022/09/04 00:54:25;;;;;;;4.90;3.40;;;;;;;23.63;46.92;101312.66;4984161;28;20049;-61
2022/09/04 00:57:12;;;;;;;4.88;3.40;;;;;;;23.66;46.52;101323.00;4975056;28;20033;-63
2022/09/04 00:59:47;;;;;;;5.47;3.22;;;;;;;23.65;46.64;101321.31;4968017;28;20121;-62
2022/09/04 01:02:48;;;;;;;5.68;3.67;;;;;;;23.63;46.60;101319.81;4978224;28;20082;-62
2022/09/04 01:05:25;;;;;;;6.05;3.72;;;;;;;23.63;46.73;101323.31;4955933;28;20034;-62
2022/09/04 01:08:31;;;;;;;4.85;3.20;;;;;;;23.63;46.54;101323.31;4969997;28;20034;-62
2022/09/04 01:11:27;;;;;;;5.63;3.50;;;;;;;23.61;47.03;101324.47;4977297;28;20027;-62
2022/09/04 01:14:13;;;;;;;4.90;3.55;;;;;;;23.59;47.16;101329.94;4967664;28;20459;-61
2022/09/04 01:17:16;;;;;;;4.90;3.30;;;;;;;23.60;46.56;101338.75;4975561;28;20042;-62
2022/09/04 01:19:51;;;;;;;4.57;3.50;;;;;;;23.58;47.14;101338.88;4973039;28;20562;-63
2022/09/04 01:22:25;;;;;;;4.60;3.33;;;;;;;23.57;47.27;101345.19;4976799;28;20105;-61
2022/09/04 01:25:16;;;;;;;4.70;3.05;;;;;;;23.57;46.96;101347.84;4973710;28;20112;-61
2022/09/04 01:27:53;;;;;;;4.55;3.28;;;;;;;23.58;46.95;101354.03;4967738;28;20045;-62
2022/09/04 01:30:20;;;;;;;5.53;3.00;;;;;;;23.53;47.07;101354.47;4968607;28;20054;-61
2022/09/04 01:32:51;;;;;;;4.78;3.25;;;;;;;23.54;47.37;101356.97;4967658;28;20044;-61
2022/09/04 01:35:38;;;;;;;4.82;3.15;;;;;;;23.53;46.92;101355.28;4966362;28;20031;-61
2022/09/04 01:38:18;;;;;;;5.25;3.45;;;;;;;23.53;46.90;101346.50;4982391;28;20150;-61
2022/09/04 01:41:07;;;;;;;5.35;3.35;;;;;;;23.52;47.25;101350.13;4978188;28;20046;-63
2022/09/04 01:43:33;;;;;;;5.22;3.50;;;;;;;23.52;46.98;101363.41;4971945;28;20030;-63
2022/09/04 01:46:05;;;;;;;5.07;3.30;;;;;;;23.49;47.43;101353.91;4978346;28;20045;-63
2022/09/04 01:48:33;;;;;;;6.53;3.60;;;;;;;23.50;47.28;101360.91;4972975;28;20033;-62
2022/09/04 01:51:06;;;;;;;4.90;3.45;;;;;;;23.45;47.21;101352.53;4962546;28;20035;-62
2022/09/04 01:53:38;;;;;;;4.63;3.10;;;;;;;23.46;47.67;101354.19;4963290;28;20549;-62
2022/09/04 01:56:13;;;;;;;4.97;3.40;;;;;;;23.48;47.69;101362.03;4963333;28;20035;-62
2022/09/04 01:58:57;;;;;;;5.18;3.25;;;;;;;23.44;47.34;101358.84;4962846;28;20038;-63
2022/09/04 02:01:29;;;;;;;5.47;3.20;;;;;;;23.43;47.34;101369.63;4962381;28;20033;-62
2022/09/04 02:04:21;;;;;;;4.53;3.28;;;;;;;23.45;47.64;101373.81;4962589;28;20478;-62
2022/09/04 02:06:59;;;;;;;5.03;3.45;;;;;;;23.44;47.65;101374.78;4962492;28;20042;-62
2022/09/04 02:10:00;;;;;;;5.20;3.03;;;;;;;23.44;47.34;101380.13;4962726;28;20027;-63
2022/09/04 02:12:41;;;;;;;5.10;3.47;;;;;;;23.42;47.65;101376.78;4962786;28;20034;-62
2022/09/04 02:15:48;;;;;;;5.43;3.50;;;;;;;23.41;47.51;101380.41;4979426;28;20496;-62
2022/09/04 02:18:31;;;;;;;4.65;2.90;;;;;;;23.42;47.80;101387.41;4943932;28;20364;-63
2022/09/04 02:21:23;;;;;;;5.72;3.33;;;;;;;23.42;47.48;101386.59;4963091;28;20118;-63
2022/09/04 02:24:12;;;;;;;4.35;3.22;;;;;;;23.40;47.58;101386.72;4977147;28;20475;-63
2022/09/04 02:26:53;;;;;;;5.63;3.15;;;;;;;23.41;47.44;101393.72;4962683;28;20045;-62
2022/09/04 02:29:36;;;;;;;4.88;3.38;;;;;;;23.41;47.35;101388.38;4926599;28;1039736;-64
2022/09/04 02:32:18;;;;;;;4.95;3.30;;;;;;;23.31;47.69;101379.63;4970566;28;20053;-63
2022/09/04 02:34:46;;;;;;;4.30;3.25;;;;;;;23.40;47.44;101393.84;4964194;28;20031;-62
2022/09/04 02:37:29;;;;;;;5.75;2.97;;;;;;;23.39;47.58;101390.38;4976284;28;20035;-62
2022/09/04 02:40:19;;;;;;;4.35;2.97;;;;;;;23.39;47.95;101400.19;4963305;28;20038;-62
2022/09/04 02:43:06;;;;;;;4.93;3.10;;;;;;;23.39;47.68;101410.81;4969037;28;20038;-61
2022/09/04 02:45:54;;;;;;;4.78;3.40;;;;;;;23.35;47.52;101404.91;4981983;28;20042;-61
2022/09/04 02:48:43;;;;;;;4.65;3.30;;;;;;;23.38;47.72;101409.94;4974518;28;20117;-62
2022/09/04 02:52:07;;;;;;;5.20;3.45;;;;;;;23.37;47.86;101405.63;4975780;28;20046;-61
2022/09/04 02:55:05;;;;;;;6.78;3.33;;;;;;;23.30;47.82;101400.03;4937638;29;20027;-63
2022/09/04 02:57:53;;;;;;;4.70;3.08;;;;;;;23.36;48.03;101412.75;4965109;28;20111;-62
2022/09/04 03:00:32;;;;;;;4.60;3.05;;;;;;;23.36;48.35;101417.25;4972253;28;20045;-62
2022/09/04 03:03:11;;;;;;;4.68;3.50;;;;;;;23.32;48.32;101408.72;4972858;28;20034;-62
2022/09/04 03:05:40;;;;;;;5.18;3.30;;;;;;;23.34;47.92;101416.56;4981864;28;20041;-63
2022/09/04 03:08:15;;;;;;;5.80;3.20;;;;;;;23.34;48.20;101411.25;4963869;28;20202;-63
2022/09/04 03:10:52;;;;;;;5.22;2.90;;;;;;;23.35;48.06;101416.41;4964043;28;20044;-61
2022/09/04 03:13:39;;;;;;;4.70;3.45;;;;;;;23.35;48.35;101420.88;4975950;28;20034;-62
2022/09/04 03:16:26;;;;;;;4.82;3.40;;;;;;;23.34;48.19;101422.72;4966922;28;20035;-61
2022/09/04 03:19:05;;;;;;;5.70;3.47;;;;;;;23.31;48.27;101416.84;4966443;28;20441;-61
2022/09/04 03:21:49;;;;;;;4.63;3.40;;;;;;;23.31;48.08;101419.50;4981869;28;20026;-61
2022/09/04 03:24:45;;;;;;;4.50;3.20;;;;;;;23.33;48.26;101429.00;4973617;28;20023;-61
2022/09/04 03:27:14;;;;;;;4.53;3.13;;;;;;;23.32;48.20;101422.03;4958754;28;20129;-63
2022/09/04 03:30:04;;;;;;;5.18;3.38;;;;;;;23.32;48.46;101423.81;4970678;28;20050;-63
2022/09/04 03:32:44;;;;;;;4.50;3.03;;;;;;;23.33;48.26;101420.19;4981470;28;20034;-61
2022/09/04 03:35:16;;;;;;;5.53;3.50;;;;;;;23.32;48.42;101423.81;4981307;28;20085;-62
2022/09/04 03:37:50;;;;;;;4.68;3.22;;;;;;;23.31;48.57;101425.66;4973240;28;20053;-62
2022/09/04 03:40:26;;;;;;;;;;;;;;;23.28;48.66;101422.47;4964538;28;20030;-61
2022/09/04 03:43:20;;;;;;;5.38;3.40;;;;;;;23.27;48.57;101424.25;4977475;28;19932;-61
2022/09/04 03:46:16;;;;;;;5.60;3.28;;;;;;;23.26;48.69;101421.78;4981176;28;20205;-62
2022/09/04 03:49:13;;;;;;;4.75;3.40;;;;;;;23.28;48.31;101433.09;4978541;28;20483;-63
2022/09/04 03:51:55;;;;;;;4.50;3.05;;;;;;;23.27;48.49;101434.06;4980984;28;20096;-62
2022/09/04 03:54:48;;;;;;;4.72;3.10;;;;;;;23.28;48.62;101435.75;4981404;28;20039;-63
2022/09/04 03:57:43;;;;;;;5.15;3.22;;;;;;;23.28;48.79;101435.75;4981715;28;20034;-63
2022/09/04 04:00:09;;;;;;;;;;;;;;;23.24;48.71;101437.00;4981540;28;20121;-63
2022/09/04 04:02:53;;;;;;;4.68;3.30;;;;;;;23.24;48.58;101443.19;4980007;28;19929;-63
2022/09/04 04:05:39;;;;;;;4.72;3.25;;;;;;;23.22;48.59;101439.81;4980747;28;20050;-62
2022/09/04 04:08:26;;;;;;;5.45;3.17;;;;;;;23.20;48.86;101431.16;4981093;28;20039;-63
2022/09/04 04:11:07;;;;;;;4.15;3.03;;;;;;;23.21;48.65;101437.31;4978954;28;20133;-62
2022/09/04 04:14:03;;;;;;;4.80;2.88;;;;;;;23.22;48.72;101444.31;4963614;28;20042;-62
2022/09/04 04:17:09;;;;;;;4.88;3.30;;;;;;;23.23;48.58;101446.00;4975716;28;20475;-63
2022/09/04 04:19:47;;;;;;;4.10;2.85;;;;;;;23.22;48.62;101450.44;4978822;28;20042;-63
2022/09/04 04:22:50;;;;;;;4.80;3.33;;;;;;;23.21;48.63;101464.75;4976858;28;20042;-62
2022/09/04 04:25:59;;;;;;;5.32;3.35;;;;;;;23.20;48.73;101463.06;4973720;28;20038;-63
2022/09/04 04:28:46;;;;;;;5.03;3.33;;;;;;;23.19;48.95;101461.38;4976086;28;20121;-63
2022/09/04 04:31:24;;;;;;;4.45;2.90;;;;;;;23.19;49.04;101464.03;4976639;28;20150;-62
2022/09/04 04:34:18;;;;;;;4.65;2.90;;;;;;;23.16;49.04;101466.97;4965134;28;20042;-62
2022/09/04 04:37:13;;;;;;;4.50;3.20;;;;;;;23.18;48.68;101476.50;4965269;28;20042;-62
2022/09/04 04:39:47;;;;;;;4.78;3.15;;;;;;;23.18;48.81;101473.00;4936382;28;20293;-61
2022/09/04 04:42:17;;;;;;;;;;;;;;;23.15;49.09;101468.81;4984984;28;20126;-62
2022/09/04 04:48:31;;;;;;;3.97;2.88;;;;;;;23.18;48.73;101470.34;4965107;28;20093;-63
2022/09/04 04:51:12;;;;;;;4.57;3.05;;;;;;;23.17;48.75;101468.66;4965211;28;20471;-62
2022/09/04 04:53:48;;;;;;;5.18;3.33;;;;;;;23.15;48.62;101473.28;4965163;28;20026;-61
2022/09/04 04:56:49;;;;;;;4.90;3.25;;;;;;;23.15;48.80;101475.94;4966644;28;20101;-61
2022/09/04 04:59:37;;;;;;;4.40;2.80;;;;;;;23.13;49.10;101473.44;4957785;28;20471;-62
2022/09/04 05:02:20;;;;;;;5.18;3.20;;;;;;;23.12;49.09;101481.56;4964820;28;20027;-63
2022/09/04 05:05:06;;;;;;;4.75;3.20;;;;;;;23.14;48.69;101485.72;4977044;28;20034;-62
2022/09/04 05:07:59;;;;;;;4.63;3.17;;;;;;;23.09;49.16;101490.63;4970286;28;20375;-62
2022/09/04 05:10:30;;;;;;;4.10;2.70;;;;;;;23.14;49.13;101498.19;4964644;28;20019;-63
2022/09/04 05:13:33;;;;;;;5.63;3.42;;;;;;;23.14;49.05;101500.84;4964406;28;20035;-61
2022/09/04 05:16:16;;;;;;;4.47;2.90;;;;;;;23.13;49.16;101494.69;4964798;28;20245;-62
2022/09/04 05:18:51;;;;;;;5.50;3.20;;;;;;;23.07;48.98;101497.91;4975169;28;20038;-61
2022/09/04 05:21:52;;;;;;;5.07;3.38;;;;;;;23.10;49.19;101502.97;4983827;28;20058;-62
2022/09/04 05:24:32;;;;;;;4.60;3.03;;;;;;;23.14;48.89;101516.81;4977888;28;20889;-61
2022/09/04 05:27:15;;;;;;;5.05;3.00;;;;;;;23.11;49.16;101517.91;4972839;28;20479;-62
2022/09/04 05:29:51;;;;;;;4.55;3.10;;;;;;;23.11;48.87;101527.72;4967472;28;20405;-61
2022/09/04 05:32:59;;;;;;;4.35;3.10;;;;;;;23.12;49.44;101529.41;4982834;28;20121;-61
2022/09/04 05:35:36;;;;;;;5.15;3.13;;;;;;;23.11;49.30;101528.53;4967579;28;20038;-63
2022/09/04 05:38:31;;;;;;;5.07;3.53;;;;;;;23.12;49.32;101540.03;4963624;28;20049;-61
2022/09/04 05:41:06;;;;;;;4.30;2.95;;;;;;;23.12;49.16;101535.56;4968449;28;20070;-62
2022/09/04 05:43:46;;;;;;;4.90;3.42;;;;;;;23.15;49.55;101537.09;4976970;28;20034;-60
2022/09/04 05:46:36;;;;;;;5.53;3.40;;;;;;;23.16;49.09;101536.09;4970638;28;20030;-61
2022/09/04 05:49:15;;;;;;;4.88;3.33;;;;;;;23.16;49.63;101546.72;4963890;28;20046;-61
2022/09/04 05:52:10;;;;;;;5.10;3.20;;;;;;;23.18;49.51;101555.44;4966944;28;20026;-62
2022/09/04 05:54:35;;;;;;;6.88;3.60;;;;;;;23.17;49.35;101562.56;4963517;28;20479;-62
2022/09/04 05:57:09;;;;;;;4.47;3.20;;;;;;;23.18;49.48;101561.56;4963847;28;20041;-61
2022/09/04 05:59:42;;;;;;;;;;;;;;;23.16;49.53;101566.22;4963885;28;20109;-61
2022/09/04 06:02:46;;;;;;;6.20;3.30;;;;;;;23.20;49.44;101563.28;4972886;28;20381;-62
2022/09/04 06:05:18;;;;;;;4.40;3.10;;;;;;;23.21;49.41;101571.09;4970192;28;20112;-61
2022/09/04 06:08:01;;;;;;;4.72;3.15;;;;;;;23.20;49.42;101569.41;4982550;28;20049;-61
2022/09/04 06:10:45;;;;;;;5.28;3.20;;;;;;;23.21;49.34;101578.22;4982766;28;20137;-61
2022/09/04 06:13:27;;;;;;;4.90;3.35;;;;;;;23.21;49.69;101573.75;4971744;28;20745;-62
2022/09/04 06:16:03;;;;;;;5.68;3.35;;;;;;;23.22;49.37;101574.59;4974973;28;20359;-62
2022/09/04 06:18:40;;;;;;;4.78;3.20;;;;;;;23.22;49.88;101571.94;4982322;28;20394;-63
2022/09/04 06:21:14;;;;;;;4.53;2.85;;;;;;;23.22;49.72;101575.44;4982525;28;20030;-62
2022/09/04 06:23:55;;;;;;;6.60;3.38;;;;;;;23.24;49.62;101572.63;4970128;28;20035;-62
2022/09/04 06:26:33;;;;;;;5.85;3.22;;;;;;;23.22;49.81;101575.44;4966401;28;20463;-64
2022/09/04 06:29:04;;;;;;;4.50;3.13;;;;;;;23.25;49.43;101577.81;4972276;28;20266;-62
2022/09/04 06:31:44;;;;;;;4.63;2.92;;;;;;;23.34;49.28;101584.13;4972361;28;20038;-63
2022/09/04 06:34:41;;;;;;;4.32;3.05;;;;;;;23.36;49.49;101582.97;4972920;28;20027;-63
2022/09/04 06:37:15;;;;;;;4.90;3.22;;;;;;;23.37;49.55;101578.50;4973856;28;20066;-61
2022/09/04 06:40:05;;;;;;;3.97;2.85;;;;;;;23.41;49.30;101582.53;4982203;28;20084;-63
2022/09/04 06:42:55;;;;;;;4.50;2.85;;;;;;;23.35;49.11;101585.78;4967611;28;20080;-63
2022/09/04 06:45:45;;;;;;;4.15;2.63;;;;;;;23.44;49.51;101582.25;4972051;28;20471;-62
2022/09/04 06:48:34;;;;;;;4.47;3.00;;;;;;;23.48;49.09;101583.66;4973118;28;20038;-62
2022/09/04 06:51:20;;;;;;;4.47;2.80;;;;;;;23.55;49.08;101592.75;4962722;28;20074;-62
2022/09/04 06:54:04;;;;;;;4.68;2.80;;;;;;;23.61;49.35;101593.19;4936076;28;20287;-62
2022/09/04 06:56:40;;;;;;;6.30;3.47;;;;;;;23.59;49.80;101587.16;4962639;28;20368;-64
2022/09/04 06:59:08;;;;;;;5.25;3.03;;;;;;;23.60;49.49;101588.84;4972233;28;21097;-62
2022/09/04 07:01:40;;;;;;;5.13;2.45;;;;;;;23.65;49.28;101587.41;4982107;28;20121;-61
2022/09/04 07:04:23;;;;;;;4.07;2.67;;;;;;;23.68;49.34;101594.28;4970344;28;20038;-62
2022/09/04 07:07:06;;;;;;;5.95;2.90;;;;;;;23.71;49.57;101592.16;4962499;28;20565;-62
2022/09/04 07:09:53;;;;;;;3.65;2.28;;;;;;;23.76;49.04;101597.03;4962624;28;20038;-62
2022/09/04 07:12:39;;;;;;;6.38;3.00;;;;;;;23.80;49.59;101600.25;4972286;28;20035;-62
2022/09/04 07:15:20;;;;;;;4.30;2.60;;;;;;;23.80;49.40;101602.91;4962377;28;20042;-63
2022/09/04 07:18:03;;;;;;;3.85;2.35;;;;;;;23.83;49.45;101614.16;4974327;28;20541;-62
2022/09/04 07:20:34;;;;;;;6.75;2.72;;;;;;;23.85;49.49;101611.34;4981696;28;20418;-63
2022/09/04 07:23:37;;;;;;;4.90;2.60;;;;;;;23.86;49.28;101608.56;4965123;28;20483;-63
2022/09/04 07:26:17;;;;;;;5.38;2.75;;;;;;;23.85;49.44;101606.03;4962113;28;20027;-66
2022/09/04 07:28:55;;;;;;;5.57;2.67;;;;;;;23.88;49.54;101613.72;4963032;28;20475;-64
2022/09/04 07:31:26;;;;;;;6.25;2.70;;;;;;;23.89;49.60;101608.28;4981544;28;20042;-62
2022/09/04 07:34:00;;;;;;;5.57;2.78;;;;;;;23.93;49.76;101622.13;4981266;28;20054;-62
2022/09/04 07:36:37;;;;;;;5.53;2.50;;;;;;;23.90;49.45;101620.56;4981770;28;20030;-64
2022/09/04 07:39:22;;;;;;;5.15;3.00;;;;;;;23.97;49.35;101628.81;4966755;28;21161;-63
2022/09/04 07:42:04;;;;;;;5.18;2.67;;;;;;;23.95;49.62;101628.13;4973724;28;20050;-62
2022/09/04 07:44:43;;;;;;;4.90;3.25;;;;;;;23.99;49.69;101636.66;4968619;28;20030;-63
2022/09/04 07:47:49;;;;;;;6.38;3.08;;;;;;;23.98;49.44;101635.00;4981408;28;20455;-64
2022/09/04 07:50:23;;;;;;;5.15;2.90;;;;;;;23.99;49.23;101640.19;4972360;28;20038;-63
2022/09/04 07:53:18;;;;;;;5.28;2.95;;;;;;;24.01;49.52;101640.03;4966865;28;20031;-62
2022/09/04 07:55:49;;;;;;;6.00;3.15;;;;;;;23.98;49.71;101635.84;4972835;28;20039;-64
2022/09/04 07:58:36;;;;;;;4.70;2.80;;;;;;;24.02;49.83;101641.69;4979429;28;20109;-63
2022/09/04 08:01:35;;;;;;;4.47;2.95;;;;;;;24.03;49.51;101636.22;4968459;28;20109;-66
2022/09/04 08:04:31;;;;;;;6.70;3.00;;;;;;;24.05;49.99;101638.75;4978038;28;20144;-61
2022/09/04 08:07:06;;;;;;;6.30;2.90;;;;;;;24.04;49.98;101631.75;4984696;28;20026;-61
2022/09/04 08:10:03;;;;;;;5.15;2.80;;;;;;;24.07;49.52;101642.13;4973025;28;20027;-63
2022/09/04 08:12:46;;;;;;;5.30;2.67;;;;;;;24.09;50.09;101648.97;4965635;28;20549;-64
2022/09/04 08:15:42;;;;;;;5.32;2.72;;;;;;;24.10;49.99;101649.81;4966458;28;20125;-64
2022/09/04 08:18:14;;;;;;;6.10;2.83;;;;;;;24.08;49.74;101641.13;4967573;28;20046;-64
2022/09/04 08:20:58;;;;;;;6.03;2.80;;;;;;;24.09;49.93;101654.28;4976759;28;20030;-77
2022/09/04 08:23:29;;;;;;;5.38;3.35;;;;;;;24.02;50.53;101653.22;4970342;28;20069;-73
2022/09/04 08:26:13;;;;;;;5.68;3.28;;;;;;;24.03;50.74;101665.50;4973736;28;20344;-76
2022/09/04 08:29:07;;;;;;;4.60;3.05;;;;;;;24.03;50.88;101654.88;4978452;28;20344;-71
2022/09/04 08:31:41;;;;;;;4.65;2.70;;;;;;;24.11;50.57;101670.13;4979379;28;20035;-74
2022/09/04 08:34:36;;;;;;;6.70;3.03;;;;;;;24.14;50.35;101663.69;4972860;28;20313;-76
2022/09/04 08:37:16;;;;;;;6.00;2.60;;;;;;;24.15;50.48;101660.88;4975097;28;20536;-77
2022/09/04 08:40:11;;;;;;;6.10;2.97;;;;;;;24.22;50.47;101666.47;4964396;28;20120;-71
2022/09/04 08:43:16;;;;;;;6.75;3.20;;;;;;;24.26;50.28;101668.69;4976324;28;20801;-73
2022/09/04 08:46:28;;;;;;;8.38;3.42;;;;;;;24.29;50.09;101664.88;4979161;28;21236;-75
2022/09/04 08:48:53;;;;;;;5.22;2.90;;;;;;;24.30;49.92;101671.88;4963098;28;20035;-75
2022/09/04 08:51:33;;;;;;;6.87;4.33;;;;;;;24.30;52.06;101674.56;4980635;28;20044;-75
2022/09/04 08:54:43;;;;;;;7.97;4.82;;;;;;;24.33;52.72;101678.75;4984002;28;20133;-76
2022/09/04 08:57:26;;;;;;;7.80;5.15;;;;;;;24.35;52.36;101674.94;4973161;28;20058;-77
2022/09/04 09:00:04;;;;;;;8.10;4.83;;;;;;;24.40;52.27;101685.16;4968504;28;20073;-78
2022/09/04 09:03:07;;;;;;;8.52;4.47;;;;;;;24.42;52.22;101684.03;4980127;28;20023;-77
2022/09/04 09:06:05;;;;;;;5.65;3.17;;;;;;;24.44;51.11;101679.41;4966572;28;20053;-77
2022/09/04 09:08:37;;;;;;;5.00;2.78;;;;;;;24.44;50.70;101684.72;4973205;28;20817;-78
2022/09/04 09:11:24;;;;;;;4.60;2.83;;;;;;;24.43;50.59;101680.41;4976777;28;20038;-73
2022/09/04 09:14:11;;;;;;;6.32;2.70;;;;;;;24.41;50.23;101670.88;4972059;28;20125;-72
2022/09/04 09:16:50;;;;;;;3.88;2.65;;;;;;;24.45;50.13;101677.59;4964264;28;20039;-76
2022/09/04 09:19:41;;;;;;;4.30;2.70;;;;;;;24.50;50.29;101679.78;4971673;28;20042;-76
2022/09/04 09:22:09;;;;;;;5.35;2.70;;;;;;;24.51;50.19;101676.97;4976511;28;20030;-75
2022/09/04 09:24:56;;;;;;;4.13;2.35;;;;;;;24.53;50.15;101672.38;4965587;28;20038;-75
2022/09/04 09:28:06;;;;;;;4.30;2.60;;;;;;;24.53;50.15;101661.72;4974702;28;20027;-70
2022/09/04 09:31:01;;;;;;;4.07;2.47;;;;;;;24.54;49.52;101668.69;4972230;28;20054;-78
2022/09/04 09:34:10;;;;;;;4.53;2.33;;;;;;;24.55;49.48;101669.56;4957971;28;20043;-75
2022/09/04 09:36:46;;;;;;;4.53;2.45;;;;;;;24.56;49.83;101669.44;4945170;28;20047;-75
2022/09/04 09:39:46;;;;;;;5.88;2.63;;;;;;;24.61;49.38;101677.81;4972590;28;20034;-77
2022/09/04 09:42:30;;;;;;;5.88;2.58;;;;;;;24.63;49.22;101670.50;4963458;28;20038;-76
2022/09/04 09:45:42;;;;;;;4.55;2.60;;;;;;;24.62;49.54;101668.84;4963432;28;20109;-76
2022/09/04 09:48:28;;;;;;;5.70;2.50;;;;;;;24.69;49.38;101670.91;4963202;28;20042;-76
2022/09/04 09:50:59;;;;;;;5.97;2.13;;;;;;;24.69;49.22;101676.22;4963307;28;20049;-66
2022/09/04 09:53:45;;;;;;;4.35;2.45;;;;;;;24.67;49.03;101672.88;4980419;28;20038;-66
2022/09/04 09:56:54;;;;;;;4.75;2.45;;;;;;;24.68;48.95;101679.91;4967494;28;20038;-66
2022/09/04 09:59:38;;;;;;;3.78;2.30;;;;;;;24.71;49.23;101682.28;4967533;28;20019;-66
2022/09/04 10:02:36;;;;;;;5.85;2.47;;;;;;;24.69;49.04;101685.09;4963390;28;20031;-68
2022/09/04 10:05:12;;;;;;;5.60;2.38;;;;;;;24.70;48.89;101685.91;4973771;28;20027;-78
2022/09/04 10:08:11;;;;;;;4.93;2.35;;;;;;;24.67;48.74;101681.72;4982524;28;20042;-76
2022/09/04 10:11:22;;;;;;;4.30;2.30;;;;;;;24.69;48.64;101685.09;4981962;28;20037;-75
2022/09/04 10:14:19;;;;;;;3.80;1.98;;;;;;;24.74;48.93;101677.47;4954871;28;20039;-77
2022/09/04 10:17:12;;;;;;;3.92;2.20;;;;;;;24.79;48.30;101677.03;4962748;28;20035;-75
2022/09/04 10:20:11;;;;;;;4.32;2.25;;;;;;;24.80;48.25;101676.03;4962853;28;20031;-76
2022/09/04 10:23:14;;;;;;;4.38;2.33;;;;;;;24.81;48.60;101688.38;4979176;28;20027;-74
2022/09/04 10:26:01;;;;;;;4.57;2.13;;;;;;;24.83;48.30;101682.91;4969481;28;20494;-62
2022/09/04 10:28:39;;;;;;;4.53;2.40;;;;;;;24.83;48.52;101680.22;4978419;28;20026;-65
2022/09/04 10:31:29;;;;;;;4.30;2.20;;;;;;;24.83;48.67;101683.72;4972842;28;20066;-65
2022/09/04 10:34:13;;;;;;;4.53;2.28;;;;;;;24.81;48.48;101678.53;4975902;28;21196;-63
2022/09/04 10:37:06;;;;;;;4.15;2.38;;;;;;;24.80;48.30;101690.22;4975319;28;20034;-63
2022/09/04 10:42:55;;;;;;;4.95;2.28;;;;;;;24.78;48.41;101684.19;4967199;28;20085;-66
2022/09/04 10:45:37;;;;;;;4.10;2.20;;;;;;;24.75;48.26;101684.50;4973733;28;20121;-67
2022/09/04 10:48:47;;;;;;;5.32;2.22;;;;;;;24.77;48.44;101697.69;4975837;28;20414;-66
2022/09/04 10:51:53;;;;;;;4.65;2.30;;;;;;;24.76;48.21;101688.00;4952429;28;20054;-65
2022/09/04 10:54:43;;;;;;;4.57;2.40;;;;;;;24.74;48.38;101682.81;4967583;28;20122;-64
2022/09/04 10:57:44;;;;;;;5.10;2.58;;;;;;;24.72;48.45;101681.25;4970203;28;20042;-64
2022/09/04 11:00:13;;;;;;;4.28;2.42;;;;;;;24.65;48.47;101674.88;4967248;28;20372;-64
2022/09/04 11:03:19;;;;;;;4.38;2.33;;;;;;;24.70;48.24;101680.59;4980890;28;20391;-64
2022/09/04 11:06:28;;;;;;;3.72;2.10;;;;;;;24.68;48.24;101677.25;4981910;28;20034;-63
2022/09/04 11:09:06;;;;;;;5.22;2.65;;;;;;;24.67;48.68;101684.38;4973096;28;20018;-63
2022/09/04 11:11:46;;;;;;;6.22;2.08;;;;;;;24.63;48.29;101677.69;4982289;28;20564;-66
2022/09/04 11:14:27;;;;;;;4.82;2.38;;;;;;;24.66;48.72;101685.38;4967676;28;20144;-72
2022/09/04 11:17:16;;;;;;;5.03;2.10;;;;;;;24.67;48.22;101681.72;4975752;28;20141;-74
2022/09/04 11:20:18;;;;;;;3.58;2.00;;;;;;;24.68;48.49;101687.91;4975718;28;20542;-73
2022/09/04 11:23:28;;;;;;;6.68;1.88;;;;;;;24.65;48.46;101683.69;4962068;28;20039;-71
2022/09/04 11:26:12;;;;;;;4.72;2.30;;;;;;;24.65;48.18;101681.03;4956137;28;20104;-64
2022/09/04 11:29:02;;;;;;;4.65;2.10;;;;;;;24.66;48.51;101676.53;4965455;28;20263;-63
2022/09/04 11:31:45;;;;;;;3.92;2.15;;;;;;;24.65;48.31;101669.53;4963935;28;20050;-64
2022/09/04 11:34:51;;;;;;;4.55;2.05;;;;;;;24.69;48.22;101678.91;4963238;28;20477;-62
2022/09/04 11:37:24;;;;;;;3.78;2.15;;;;;;;24.69;47.84;101677.09;4966360;28;20037;-75
2022/09/04 11:39:52;;;;;;;4.43;2.30;;;;;;;24.71;48.05;101675.09;4976351;28;20039;-77
2022/09/04 11:42:26;;;;;;;6.35;2.28;;;;;;;24.66;47.54;101677.38;4969263;28;21151;-74
2022/09/04 11:45:15;;;;;;;4.20;2.10;;;;;;;24.66;47.61;101689.84;4970518;28;20034;-74
2022/09/04 11:47:53;;;;;;;3.38;1.80;;;;;;;24.63;47.47;101683.84;4980656;28;20129;-72
2022/09/04 11:50:41;;;;;;;4.85;2.17;;;;;;;24.62;47.35;101682.19;4974047;28;20117;-72
2022/09/04 11:53:32;;;;;;;5.35;1.90;;;;;;;24.67;47.59;101684.38;4976512;28;20034;-66
2022/09/04 11:56:12;;;;;;;4.75;2.03;;;;;;;24.71;47.62;101684.94;4982629;28;20034;-65
2022/09/04 11:59:09;;;;;;;5.03;2.15;;;;;;;24.72;47.19;101681.25;4983714;28;20030;-66
2022/09/04 12:02:05;;;;;;;4.22;2.20;;;;;;;24.74;47.69;101684.66;4970588;28;20030;-66
2022/09/04 12:05:01;;;;;;;4.75;2.20;;;;;;;24.73;47.19;101680.28;4977982;28;20069;-66
2022/09/04 12:07:39;;;;;;;4.47;2.35;;;;;;;24.76;47.23;101682.66;4979644;28;20406;-67
2022/09/04 12:10:27;;;;;;;4.28;1.98;;;;;;;24.76;47.47;101685.31;4975328;28;20387;-67
2022/09/04 12:12:59;;;;;;;3.63;1.73;;;;;;;24.76;46.95;101680.81;4973103;28;20046;-67
2022/09/04 12:15:45;;;;;;;4.28;2.28;;;;;;;24.76;47.35;101682.66;4976842;28;20030;-66
2022/09/04 12:18:32;;;;;;;4.38;2.03;;;;;;;24.76;47.38;101693.31;4974911;28;20038;-67
2022/09/04 12:21:18;;;;;;;4.13;2.20;;;;;;;24.77;47.27;101700.34;4980614;28;20026;-66
2022/09/04 12:24:21;;;;;;;5.80;2.22;;;;;;;24.77;46.85;101693.19;4972364;28;20046;-66
2022/09/04 12:27:15;;;;;;;4.88;2.20;;;;;;;24.77;47.20;101693.19;4980192;28;20648;-68
2022/09/04 12:29:56;;;;;;;3.23;2.00;;;;;;;24.74;47.38;101688.13;4974207;28;20064;-67
2022/09/04 12:33:11;;;;;;;3.90;2.05;;;;;;;24.75;46.85;101691.63;4976167;28;20264;-67
2022/09/04 12:36:01;;;;;;;3.67;2.20;;;;;;;24.70;47.37;101691.25;4979257;28;20078;-67
2022/09/04 12:38:48;;;;;;;4.00;2.40;;;;;;;24.73;47.38;101689.13;4971421;28;20039;-67
2022/09/04 12:41:29;;;;;;;7.78;2.38;;;;;;;24.71;47.17;101680.44;4973792;28;20054;-70
2022/09/04 12:44:10;;;;;;;6.57;2.28;;;;;;;24.71;47.69;101693.75;4970125;28;20034;-66
2022/09/04 12:46:59;;;;;;;5.97;2.70;;;;;;;24.76;48.42;101699.47;4972472;28;20093;-71
2022/09/04 12:49:50;;;;;;;6.63;2.90;;;;;;;24.75;48.59;101694.31;4973915;28;20110;-66
2022/09/04 12:52:44;;;;;;;6.60;2.80;;;;;;;24.74;48.48;101696.13;4974296;28;20077;-66
2022/09/04 12:55:23;;;;;;;4.88;2.60;;;;;;;24.71;48.42;101691.09;4973848;28;20064;-65
2022/09/04 12:57:54;;;;;;;6.75;3.38;;;;;;;24.76;48.79;101698.66;4972740;28;20050;-66
2022/09/04 13:00:22;;;;;;;6.93;2.92;;;;;;;24.76;48.50;101696.00;4979321;28;20134;-65